Time;durP1;ratioP1;P1;durP2;ratioP2;P2;SDS_P1;SDS_P2;PMS_P1;PMS_P2;Temp;Humidity;BMP_temperature;BMP_pressure;BME280_temperature;BME280_humidity;BME280_pressure;Samples;Min_cycle;Max_cycle;Signal;HPM_P1;HPM_P2
2022/01/24 00:00:23;;;;;;;11.35;5.72;;;;;;;-5.47;64.52;102048.17;1474182;87;21436;-87
2022/01/24 00:02:51;;;;;;;16.00;6.72;;;;;;;-5.50;64.65;102053.31;1469939;88;21642;-87
2022/01/24 00:05:18;;;;;;;10.82;4.75;;;;;;;-5.52;64.66;102051.19;1475267;87;22425;-88
2022/01/24 00:07:45;;;;;;;12.05;5.67;;;;;;;-5.53;64.78;102056.34;1457441;87;21444;-88
2022/01/24 00:10:18;;;;;;;9.85;4.92;;;;;;;-5.55;64.74;102049.03;1476064;87;21503;-87
2022/01/24 00:12:58;;;;;;;10.90;5.17;;;;;;;-5.57;64.89;102055.50;1476789;87;21413;-88
2022/01/24 00:15:37;;;;;;;11.28;5.37;;;;;;;-5.62;65.09;102048.64;1474201;87;21413;-87
2022/01/24 00:18:01;;;;;;;13.60;5.00;;;;;;;-5.61;65.05;102053.81;1475835;87;23922;-87
2022/01/24 00:28:31;;;;;;;11.40;5.50;;;;;;;-5.64;65.59;102067.13;1462732;88;23754;-87
2022/01/24 00:30:58;;;;;;;12.28;5.53;;;;;;;-5.68;65.49;102063.70;1470772;87;21413;-87
2022/01/24 00:33:26;;;;;;;11.73;5.20;;;;;;;-5.69;65.67;102066.72;1468923;87;21569;-86
2022/01/24 00:35:53;;;;;;;13.38;5.40;;;;;;;-5.70;65.69;102066.30;1483827;87;22317;-87
2022/01/24 00:38:20;;;;;;;11.70;5.72;;;;;;;-5.69;65.60;102072.31;1467944;87;21509;-86
2022/01/24 00:40:49;;;;;;;12.23;5.17;;;;;;;-5.65;65.62;102072.72;1469378;87;21709;-86
2022/01/24 00:43:34;;;;;;;12.18;4.97;;;;;;;-5.62;65.68;102078.30;1484479;87;21391;-87
2022/01/24 00:46:02;;;;;;;12.18;4.95;;;;;;;-5.66;65.58;102074.89;1473770;87;21443;-85
2022/01/24 00:56:11;;;;;;;12.00;5.83;;;;;;;-5.67;65.43;102080.88;1479705;87;21430;-87
2022/01/24 00:58:39;;;;;;;16.80;6.72;;;;;;;-5.67;65.41;102079.19;1470138;86;21535;-86
2022/01/24 01:01:07;;;;;;;13.40;6.53;;;;;;;-5.64;65.28;102078.30;1473915;87;21531;-88
2022/01/24 01:03:34;;;;;;;15.78;5.92;;;;;;;-5.63;65.20;102082.61;1475558;87;21436;-85
2022/01/24 01:19:38;;;;;;;15.25;6.60;;;;;;;-5.86;65.89;102072.78;1475931;88;21954;-87
2022/01/24 01:22:05;;;;;;;11.08;5.67;;;;;;;-5.79;65.42;102084.79;1465488;87;22594;-87
2022/01/24 01:24:38;;;;;;;14.18;6.53;;;;;;;-5.77;65.51;102095.97;1459763;88;21533;-86
2022/01/24 01:27:08;;;;;;;11.33;5.30;;;;;;;-5.74;65.44;102099.83;1457027;88;21628;-86
2022/01/24 01:29:45;;;;;;;14.50;6.25;;;;;;;-5.79;65.75;102095.11;1458973;88;21596;-85
2022/01/24 01:32:13;;;;;;;14.40;6.22;;;;;;;-5.81;65.73;102088.68;1451884;88;22522;-86
2022/01/24 01:34:56;;;;;;;13.28;6.17;;;;;;;-5.87;65.81;102088.66;1462398;88;22764;-86
2022/01/24 01:37:28;;;;;;;12.35;5.10;;;;;;;-5.90;65.82;102093.42;1460366;88;21624;-86
2022/01/24 01:40:06;;;;;;;13.30;6.00;;;;;;;-5.91;65.99;102092.97;1466185;88;21500;-85
2022/01/24 01:55:44;;;;;;;11.90;6.53;;;;;;;-5.92;65.88;102079.66;1471984;88;21485;-86
2022/01/24 01:58:20;;;;;;;12.07;5.25;;;;;;;-5.94;65.98;102088.29;1450366;87;21363;-86
2022/01/24 02:00:53;;;;;;;13.20;5.50;;;;;;;-5.96;66.12;102088.72;1476383;88;21611;-86
2022/01/24 02:03:22;;;;;;;12.70;6.60;;;;;;;-5.97;66.11;102087.86;1468952;88;21649;-86
2022/01/24 02:05:49;;;;;;;12.25;5.22;;;;;;;-6.01;66.12;102083.59;1460410;88;22426;-87
2022/01/24 02:08:17;;;;;;;15.15;6.42;;;;;;;-6.06;66.48;102085.30;1466399;88;21458;-86
2022/01/24 02:10:45;;;;;;;12.90;6.30;;;;;;;-6.12;66.68;102080.16;1460362;88;21448;-86
2022/01/24 02:13:12;;;;;;;11.60;5.80;;;;;;;-6.12;66.79;102075.00;1467010;88;22501;-86
2022/01/24 02:25:56;;;;;;;8.75;4.80;;;;;;;-6.20;67.19;102075.00;1460072;88;21429;-86
2022/01/24 02:28:27;;;;;;;13.00;6.12;;;;;;;-6.20;67.29;102076.28;1470771;88;22486;-87
2022/01/24 02:33:44;;;;;;;12.95;6.65;;;;;;;-6.26;67.44;102071.14;1458494;88;22505;-86
2022/01/24 02:36:11;;;;;;;11.53;5.47;;;;;;;-6.23;67.23;102071.56;1466335;88;21656;-86
2022/01/24 02:38:51;;;;;;;17.40;7.08;;;;;;;-6.28;67.61;102073.28;1455928;87;21422;-86
2022/01/24 02:49:35;;;;;;;13.90;8.03;;;;;;;-6.30;67.99;102078.45;1467109;88;21580;-86
2022/01/24 02:52:14;;;;;;;13.30;6.50;;;;;;;-6.32;67.96;102083.17;1466195;88;21466;-86
2022/01/24 02:54:41;;;;;;;16.93;5.58;;;;;;;-6.36;67.96;102090.91;1468649;87;21686;-86
2022/01/24 02:57:11;;;;;;;10.25;5.00;;;;;;;-6.44;68.31;102093.05;1460255;87;21544;-89
2022/01/24 02:59:38;;;;;;;12.93;6.22;;;;;;;-6.53;68.69;102091.32;1468340;88;21501;-86
2022/01/24 03:02:05;;;;;;;14.05;6.80;;;;;;;-6.59;68.83;102088.72;1474832;87;21485;-86
2022/01/24 03:04:33;;;;;;;12.05;5.03;;;;;;;-6.61;68.98;102091.73;1454249;87;21412;-86
2022/01/24 03:07:00;;;;;;;14.55;6.65;;;;;;;-6.66;69.10;102090.86;1467517;88;21436;-85
2022/01/24 03:09:27;;;;;;;12.70;6.12;;;;;;;-6.71;69.25;102093.85;1471853;88;21529;-86
2022/01/24 03:12:08;;;;;;;17.42;6.25;;;;;;;-6.78;69.44;102090.42;1454169;87;21568;-86
2022/01/24 03:14:36;;;;;;;11.57;5.80;;;;;;;-6.84;69.82;102093.84;1454711;88;21444;-86
2022/01/24 03:17:06;;;;;;;13.93;5.40;;;;;;;-6.86;70.03;102092.96;1450278;87;21407;-87
2022/01/24 03:19:33;;;;;;;13.25;6.22;;;;;;;-6.86;70.04;102094.25;1463219;88;22958;-87
2022/01/24 03:22:00;;;;;;;14.45;5.72;;;;;;;-6.79;69.79;102095.55;1463602;87;21404;-87
2022/01/24 03:24:28;;;;;;;16.55;7.95;;;;;;;-6.86;70.21;102099.41;1458283;88;22353;-87
2022/01/24 03:26:55;;;;;;;11.50;6.15;;;;;;;-6.90;70.35;102095.11;1461436;87;21598;-87
2022/01/24 03:29:22;;;;;;;14.83;6.12;;;;;;;-6.94;70.40;102102.38;1447027;88;21465;-87
2022/01/24 03:31:49;;;;;;;13.95;6.15;;;;;;;-7.02;71.00;102102.77;1469414;88;21466;-85
2022/01/24 03:34:17;;;;;;;17.23;7.15;;;;;;;-7.00;70.94;102108.80;1462390;88;22623;-86
2022/01/24 03:36:44;;;;;;;14.03;5.40;;;;;;;-6.98;70.81;102113.53;1469173;88;21457;-86
2022/01/24 03:39:12;;;;;;;12.00;6.42;;;;;;;-7.04;71.12;102105.80;1458331;88;22477;-86
2022/01/24 03:41:40;;;;;;;14.50;6.53;;;;;;;-7.05;71.10;102102.37;1454488;87;21541;-85
2022/01/24 03:44:11;;;;;;;15.70;6.80;;;;;;;-7.06;71.08;102106.20;1463234;88;21680;-85
2022/01/24 03:47:02;;;;;;;23.12;10.40;;;;;;;-7.07;70.43;102100.20;1470959;88;21413;-85
2022/01/24 03:52:03;;;;;;;20.55;8.33;;;;;;;-7.07;70.53;102108.36;1456830;88;22578;-86
2022/01/24 03:54:30;;;;;;;17.60;7.78;;;;;;;-7.10;70.82;102114.36;1456228;88;21515;-86
2022/01/24 03:56:57;;;;;;;18.37;7.35;;;;;;;-7.14;71.37;102119.47;1453824;87;22353;-86
2022/01/24 03:59:25;;;;;;;16.80;8.35;;;;;;;-7.13;71.60;102125.07;1475791;88;21402;-87
2022/01/24 04:01:52;;;;;;;17.23;7.83;;;;;;;-7.10;71.72;102123.80;1460703;88;21598;-87
2022/01/24 04:04:20;;;;;;;15.63;8.03;;;;;;;-7.06;71.16;102129.38;1461563;87;21419;-87
2022/01/24 04:06:48;;;;;;;16.02;8.05;;;;;;;-7.09;71.32;102129.36;1445180;88;22661;-87
2022/01/24 04:09:15;;;;;;;18.48;7.75;;;;;;;-7.11;71.14;102130.63;1445262;88;21421;-86
2022/01/24 04:11:42;;;;;;;17.32;7.58;;;;;;;-7.12;70.85;102137.07;1461493;87;22339;-84
2022/01/24 04:17:04;;;;;;;15.65;8.35;;;;;;;-7.18;71.17;102137.05;1456838;88;21463;-84
2022/01/24 04:22:04;;;;;;;17.57;9.15;;;;;;;-7.27;71.40;102142.58;1441962;88;21530;-83
2022/01/24 04:24:31;;;;;;;18.52;8.80;;;;;;;-7.29;71.06;102142.99;1446191;89;21665;-84
2022/01/24 04:26:59;;;;;;;19.77;8.08;;;;;;;-7.31;71.39;102144.72;1432979;89;21687;-84
2022/01/24 04:29:26;;;;;;;18.30;8.78;;;;;;;-7.35;71.80;102151.11;1439553;88;23464;-83
2022/01/24 04:31:53;;;;;;;17.73;8.45;;;;;;;-7.35;71.49;102151.11;1456654;88;21604;-86
2022/01/24 04:34:20;;;;;;;21.33;9.13;;;;;;;-7.34;71.48;102153.67;1451620;89;22287;-85
2022/01/24 04:36:48;;;;;;;19.55;8.18;;;;;;;-7.32;71.83;102154.98;1446978;88;22322;-85
2022/01/24 04:39:17;;;;;;;18.00;8.33;;;;;;;-7.31;71.33;102165.70;1464167;88;21605;-84
2022/01/24 04:41:48;;;;;;;18.45;9.03;;;;;;;-7.28;71.46;102166.60;1446646;88;22383;-85
2022/01/24 04:52:32;;;;;;;24.75;10.45;;;;;;;-7.24;71.28;102184.62;1417485;89;21570;-81
2022/01/24 04:54:53;;;;;;;21.30;9.70;;;;;;;-7.27;71.01;102194.47;1453377;88;21643;-82
2022/01/24 04:57:24;;;;;;;18.02;8.83;;;;;;;-7.27;70.98;102205.62;1452950;88;22741;-81
2022/01/24 04:59:54;;;;;;;21.07;9.38;;;;;;;-7.30;71.20;102207.32;1460330;88;21614;-81
2022/01/24 05:02:24;;;;;;;22.05;8.75;;;;;;;-7.40;71.44;102208.95;1449449;89;21371;-82
2022/01/24 05:04:53;;;;;;;19.85;9.23;;;;;;;-7.49;71.74;102218.76;1461676;88;21554;-81
2022/01/24 05:07:20;;;;;;;23.80;9.88;;;;;;;-7.54;71.97;102224.31;1439851;89;21538;-81
2022/01/24 05:09:57;;;;;;;24.02;9.35;;;;;;;-7.59;72.05;102230.27;1449522;89;22403;-81
2022/01/24 05:25:37;;;;;;;23.75;10.10;;;;;;;-7.89;72.75;102243.30;1432800;89;22456;-82
2022/01/24 05:28:05;;;;;;;27.73;11.25;;;;;;;-7.98;73.42;102238.08;1458228;89;22474;-82
2022/01/24 05:30:32;;;;;;;30.85;11.33;;;;;;;-8.03;73.88;102235.88;1431233;88;21619;-82
2022/01/24 05:32:59;;;;;;;25.37;11.25;;;;;;;-8.02;73.52;102236.34;1456313;89;21444;-85
2022/01/24 05:35:27;;;;;;;17.67;9.00;;;;;;;-8.02;73.21;102241.05;1458273;89;23346;-83
2022/01/24 05:37:54;;;;;;;21.10;10.08;;;;;;;-8.07;73.97;102243.13;1456042;88;21508;-84
2022/01/24 05:40:21;;;;;;;31.80;13.78;;;;;;;-8.11;74.18;102242.25;1434268;88;21502;-83
2022/01/24 05:42:48;;;;;;;37.30;14.45;;;;;;;-8.12;74.26;102235.37;1446863;88;21457;-83
2022/01/24 05:45:16;;;;;;;88.87;37.90;;;;;;;-8.08;74.09;102243.98;1453960;88;22455;-83
2022/01/24 05:47:43;;;;;;;63.70;26.20;;;;;;;-8.03;73.85;102239.73;1453726;88;21629;-82
2022/01/24 05:50:10;;;;;;;160.37;65.47;;;;;;;-8.00;73.46;102239.76;1454665;88;21456;-83
2022/01/24 05:52:38;;;;;;;35.45;13.60;;;;;;;-7.92;72.82;102248.41;1451052;89;22309;-83
2022/01/24 05:55:07;;;;;;;21.95;9.88;;;;;;;-7.87;72.33;102259.60;1460721;88;23452;-82
2022/01/24 05:57:36;;;;;;;24.63;12.05;;;;;;;-7.85;72.12;102254.05;1452289;88;21510;-82
2022/01/24 06:00:10;;;;;;;124.65;54.38;;;;;;;-7.86;72.51;102249.74;1457300;88;21585;-83
2022/01/24 06:02:37;;;;;;;29.45;12.55;;;;;;;-7.87;72.44;102248.46;1466166;88;21457;-80
2022/01/24 06:05:06;;;;;;;23.67;11.57;;;;;;;-7.84;72.05;102256.20;1461467;88;22316;-81
2022/01/24 06:07:34;;;;;;;25.17;10.40;;;;;;;-7.81;71.70;102265.22;1464166;87;21418;-82
2022/01/24 06:10:01;;;;;;;27.98;14.65;;;;;;;-7.83;71.56;102258.77;1475734;87;21567;-82
2022/01/24 06:12:28;;;;;;;30.20;12.80;;;;;;;-7.80;71.56;102263.93;1469529;87;21522;-82
2022/01/24 06:14:55;;;;;;;30.10;13.28;;;;;;;-7.80;71.30;102274.22;1457570;87;22420;-81
2022/01/24 06:17:22;;;;;;;37.15;16.10;;;;;;;-7.78;71.15;102273.81;1475301;88;21582;-82
2022/01/24 06:19:50;;;;;;;79.40;30.48;;;;;;;-7.77;71.34;102280.70;1471868;88;21398;-81
2022/01/24 06:22:17;;;;;;;42.88;17.37;;;;;;;-7.79;71.03;102275.96;1430368;88;22380;-82
2022/01/24 06:24:44;;;;;;;35.23;16.00;;;;;;;-7.70;71.04;102284.17;1462585;87;21467;-82
2022/01/24 06:27:12;;;;;;;28.47;13.55;;;;;;;-7.65;70.83;102288.95;1465513;87;21434;-81
2022/01/24 06:29:39;;;;;;;30.25;12.58;;;;;;;-7.66;70.58;102297.48;1438827;88;22391;-83
2022/01/24 06:32:07;;;;;;;31.50;15.88;;;;;;;-7.61;71.07;102300.11;1450718;88;21377;-80
2022/01/24 06:34:36;;;;;;;39.08;16.82;;;;;;;-7.66;71.23;102295.34;1448055;88;21451;-81
2022/01/24 06:37:05;;;;;;;43.58;20.82;;;;;;;-7.70;71.66;102299.61;1472093;88;22175;-82
2022/01/24 06:39:33;;;;;;;60.98;27.10;;;;;;;-7.77;71.70;102299.98;1458626;88;21448;-82
2022/01/24 06:42:15;;;;;;;51.58;22.87;;;;;;;-7.82;71.65;102305.50;1463257;88;21613;-81
2022/01/24 06:44:42;;;;;;;31.82;15.00;;;;;;;-7.82;71.56;102304.21;1429384;88;21551;-82
2022/01/24 06:47:09;;;;;;;37.67;14.30;;;;;;;-7.76;71.61;102311.98;1459632;87;21486;-82
2022/01/24 06:49:36;;;;;;;36.95;14.30;;;;;;;-7.71;71.67;102314.58;1453246;87;21484;-84
2022/01/24 06:52:06;;;;;;;96.87;35.83;;;;;;;-7.66;71.80;102322.34;1467227;87;21412;-82
2022/01/24 06:54:35;;;;;;;60.43;25.17;;;;;;;-7.64;72.04;102326.66;1467480;87;22402;-82
2022/01/24 06:57:04;;;;;;;38.70;14.98;;;;;;;-7.67;72.02;102321.91;1477074;87;21485;-82
2022/01/24 06:59:31;;;;;;;63.65;26.45;;;;;;;-7.64;72.07;102326.66;1475010;87;21551;-82
2022/01/24 07:01:58;;;;;;;78.92;33.78;;;;;;;-7.55;72.05;102329.73;1470013;87;21493;-81
2022/01/24 07:04:25;;;;;;;48.90;21.85;;;;;;;-7.43;72.08;102335.41;1437946;89;21531;-82
2022/01/24 07:06:52;;;;;;;55.70;23.70;;;;;;;-7.31;72.54;102337.67;1463170;87;21368;-82
2022/01/24 07:09:19;;;;;;;65.30;27.95;;;;;;;-7.21;72.48;102339.03;1473965;87;21534;-82
2022/01/24 07:11:48;;;;;;;47.58;23.70;;;;;;;-7.19;71.76;102345.03;1451821;88;21393;-82
2022/01/24 07:14:16;;;;;;;32.53;15.65;;;;;;;-7.16;71.71;102346.34;1461486;87;21458;-82
2022/01/24 07:19:30;;;;;;;26.17;12.95;;;;;;;-7.09;71.57;102354.56;1447451;88;22630;-81
2022/01/24 07:22:00;;;;;;;22.10;9.48;;;;;;;-7.04;71.85;102341.30;1447408;88;21605;-82
2022/01/24 07:24:28;;;;;;;24.98;11.55;;;;;;;-7.02;71.76;102339.58;1434845;88;21428;-83
2022/01/24 07:26:55;;;;;;;31.12;13.98;;;;;;;-7.03;71.72;102332.72;1450225;87;21604;-82
2022/01/24 07:29:23;;;;;;;34.03;15.80;;;;;;;-6.98;71.41;102348.20;1449473;88;21352;-82
2022/01/24 07:31:51;;;;;;;56.65;21.42;;;;;;;-6.92;71.38;102349.10;1442247;88;22796;-82
2022/01/24 07:34:18;;;;;;;164.10;47.15;;;;;;;-6.84;71.21;102353.88;1436840;87;21509;-83
2022/01/24 07:36:45;;;;;;;99.77;33.18;;;;;;;-6.67;71.14;102352.70;1456321;88;21479;-83
2022/01/24 07:39:13;;;;;;;35.90;15.70;;;;;;;-6.55;70.71;102354.48;1440847;88;21547;-83
2022/01/24 07:41:44;;;;;;;74.67;30.65;;;;;;;-6.51;70.35;102354.92;1447587;88;22404;-82
2022/01/24 07:44:10;;;;;;;32.13;16.15;;;;;;;-6.36;70.31;102361.46;1444034;88;21761;-82
2022/01/24 07:46:38;;;;;;;46.02;20.00;;;;;;;-6.33;69.30;102364.88;1447020;88;22506;-83
2022/01/24 07:49:08;;;;;;;34.92;15.53;;;;;;;-6.21;69.44;102357.23;1432807;89;21413;-82
2022/01/24 07:51:36;;;;;;;31.02;15.20;;;;;;;-6.17;69.23;102366.68;1410216;87;21456;-82
2022/01/24 07:54:04;;;;;;;24.30;11.45;;;;;;;-6.09;68.92;102362.42;1395928;88;21519;-83
2022/01/24 07:56:32;;;;;;;22.67;10.28;;;;;;;-6.02;67.80;102365.44;1393108;88;21228;-82
2022/01/24 07:58:59;;;;;;;43.00;20.68;;;;;;;-5.98;68.32;102367.62;1388675;88;21539;-82
2022/01/24 08:01:26;;;;;;;36.33;16.35;;;;;;;-5.93;67.93;102373.20;1402140;89;21378;-82
2022/01/24 08:03:53;;;;;;;24.27;11.83;;;;;;;-5.87;68.21;102376.63;1395885;88;21311;-83
2022/01/24 08:06:21;;;;;;;22.90;10.85;;;;;;;-5.93;67.40;102380.93;1401758;87;21449;-82
2022/01/24 08:08:48;;;;;;;26.17;13.05;;;;;;;-5.92;67.72;102376.20;1383748;88;21346;-82
2022/01/24 08:11:18;;;;;;;24.57;11.95;;;;;;;-5.80;67.93;102373.22;1399022;87;21326;-82
2022/01/24 08:13:45;;;;;;;21.50;10.03;;;;;;;-5.67;67.48;102382.69;1379960;88;21391;-83
2022/01/24 08:16:13;;;;;;;27.60;14.25;;;;;;;-5.65;67.36;102369.81;1377416;87;21340;-81
2022/01/24 08:18:41;;;;;;;21.52;11.00;;;;;;;-5.51;67.54;102381.88;1416900;88;21332;-82
2022/01/24 08:21:08;;;;;;;18.23;9.23;;;;;;;-5.38;67.00;102373.73;1403817;88;22933;-82
2022/01/24 08:23:36;;;;;;;24.18;11.80;;;;;;;-5.25;66.18;102373.30;1412245;87;21443;-82
2022/01/24 08:26:03;;;;;;;23.60;11.75;;;;;;;-5.14;65.86;102368.16;1406431;88;22182;-82
2022/01/24 08:28:31;;;;;;;20.00;8.93;;;;;;;-5.09;65.56;102367.70;1397598;87;21517;-84
2022/01/24 08:30:58;;;;;;;22.52;10.25;;;;;;;-5.08;64.31;102366.42;1406438;88;21305;-84
2022/01/24 08:33:26;;;;;;;20.17;9.25;;;;;;;-5.09;64.61;102371.16;1406107;88;21429;-83
2022/01/24 08:35:54;;;;;;;26.70;10.75;;;;;;;-4.99;63.97;102370.28;1413987;88;21319;-83
2022/01/24 08:38:22;;;;;;;16.05;8.38;;;;;;;-4.94;64.41;102375.89;1387610;87;22987;-82
2022/01/24 08:40:56;;;;;;;29.67;15.08;;;;;;;-4.87;63.02;102370.70;1389900;87;21325;-82
2022/01/24 08:43:38;;;;;;;19.77;9.30;;;;;;;-4.62;64.57;102384.45;1353398;88;22351;-82
2022/01/24 08:45:58;;;;;;;21.95;10.25;;;;;;;-4.45;62.86;102382.27;1332927;91;21567;-82
2022/01/24 08:48:22;;;;;;;20.43;10.40;;;;;;;-4.46;61.51;102384.40;1338753;91;21392;-82
2022/01/24 08:50:53;;;;;;;19.65;9.55;;;;;;;-4.50;61.51;102386.58;1338389;91;21316;-83
2022/01/24 08:53:21;;;;;;;19.75;10.20;;;;;;;-4.44;60.87;102390.44;1334973;91;22414;-83
2022/01/24 08:55:49;;;;;;;21.68;12.90;;;;;;;-4.32;62.26;102402.03;1375408;90;21446;-82
2022/01/24 08:58:17;;;;;;;25.17;12.63;;;;;;;-4.04;62.71;102394.19;1321576;91;21395;-82
2022/01/24 09:00:46;;;;;;;22.85;12.07;;;;;;;-3.80;62.17;102402.26;1394148;91;21509;-83
2022/01/24 09:03:13;;;;;;;18.10;9.38;;;;;;;-3.56;61.77;102396.11;1362605;90;21269;-82
2022/01/24 09:05:41;;;;;;;19.90;8.95;;;;;;;-3.37;60.98;102388.63;1386940;91;21495;-83
2022/01/24 09:08:10;;;;;;;13.93;7.20;;;;;;;-3.43;58.29;102389.96;1368042;91;21562;-83
2022/01/24 09:10:39;;;;;;;16.52;8.35;;;;;;;-3.54;57.69;102395.23;1402989;88;21430;-82
2022/01/24 09:13:08;;;;;;;19.52;10.65;;;;;;;-3.57;58.38;102404.28;1439962;87;22498;-83
2022/01/24 09:15:36;;;;;;;16.10;7.45;;;;;;;-3.33;59.95;102395.52;1383550;89;21339;-83
2022/01/24 09:18:03;;;;;;;18.62;9.35;;;;;;;-3.48;57.67;102390.02;1400574;88;21308;-83
2022/01/24 09:20:31;;;;;;;19.07;8.65;;;;;;;-3.55;58.21;102396.52;1413205;88;21401;-83
2022/01/24 09:22:58;;;;;;;15.63;8.68;;;;;;;-3.52;58.01;102400.38;1389945;88;22273;-83
2022/01/24 09:25:25;;;;;;;17.35;8.90;;;;;;;-3.66;57.92;102403.05;1498266;88;21501;-82
2022/01/24 09:27:53;;;;;;;18.67;8.73;;;;;;;-3.47;58.26;102394.75;1480652;88;22304;-83
2022/01/24 09:30:23;;;;;;;19.70;9.48;;;;;;;-3.21;58.21;102404.48;1443571;89;21398;-82
2022/01/24 09:32:52;;;;;;;15.00;8.15;;;;;;;-3.18;56.73;102409.64;1441969;89;22409;-83
2022/01/24 09:35:23;;;;;;;18.62;9.25;;;;;;;-2.97;56.95;102412.93;1427533;89;23131;-83
2022/01/24 09:37:50;;;;;;;18.15;9.73;;;;;;;-2.92;57.00;102415.05;1456030;87;22247;-81
2022/01/24 09:40:19;;;;;;;17.73;9.18;;;;;;;-2.84;57.04;102415.85;1450128;87;21408;-81
2022/01/24 09:42:48;;;;;;;18.25;10.00;;;;;;;-2.65;55.31;102420.41;1462420;88;21448;-83
2022/01/24 09:45:17;;;;;;;19.17;11.40;;;;;;;-2.58;55.40;102419.50;1448202;88;21507;-83
2022/01/24 09:47:45;;;;;;;39.90;22.47;;;;;;;-1.80;55.95;102411.27;1484213;87;21434;-83
2022/01/24 09:50:15;;;;;;;103.13;51.73;;;;;;;-0.62;53.72;102408.59;1452888;87;23532;-83
2022/01/24 09:52:47;;;;;;;84.43;43.47;;;;;;;0.49;51.17;102398.97;1453336;88;21811;-83
2022/01/24 09:55:17;;;;;;;51.50;23.23;;;;;;;1.25;47.33;102398.85;1442732;87;23850;-83
2022/01/24 09:57:47;;;;;;;29.45;17.15;;;;;;;1.97;49.22;102397.34;1446708;87;22023;-83
2022/01/24 10:00:20;;;;;;;116.63;58.00;;;;;;;2.51;44.61;102393.98;1452341;89;21468;-83
2022/01/24 10:02:50;;;;;;;50.97;26.30;;;;;;;3.15;46.30;102393.19;1448264;88;22212;-83
2022/01/24 10:05:27;;;;;;;21.97;13.58;;;;;;;3.54;41.65;102391.86;1448650;88;21812;-84
2022/01/24 10:08:05;;;;;;;44.53;24.67;;;;;;;3.76;39.79;102396.73;1436662;88;21479;-84
2022/01/24 10:10:48;;;;;;;33.63;18.90;;;;;;;3.91;40.82;102390.08;1436541;88;21516;-83
2022/01/24 10:17:05;;;;;;;15.73;10.73;;;;;;;4.47;39.44;102380.52;1441860;88;21482;-83
2022/01/24 10:19:14;;;;;;;13.27;8.03;;;;;;;4.56;40.43;102381.08;1432992;88;21473;-83
2022/01/24 10:21:55;;;;;;;14.77;9.73;;;;;;;4.26;39.10;102385.30;1444507;88;22527;-83
2022/01/24 10:24:40;;;;;;;20.30;12.33;;;;;;;3.50;37.28;102385.88;1438125;87;21569;-81
2022/01/24 10:27:23;;;;;;;35.33;21.47;;;;;;;3.68;36.70;102383.52;1449146;87;21406;-81
2022/01/24 10:30:10;;;;;;;26.10;14.70;;;;;;;3.94;37.81;102380.83;1447205;88;22549;-81
2022/01/24 10:32:45;;;;;;;43.23;23.93;;;;;;;3.98;40.20;102389.41;1447923;86;21536;-82
2022/01/24 10:35:38;;;;;;;38.40;20.33;;;;;;;4.41;41.49;102374.20;1443948;87;21510;-81
2022/01/24 10:38:25;;;;;;;50.47;26.10;;;;;;;4.84;39.04;102372.95;1444046;88;21405;-81
2022/01/24 10:40:52;;;;;;;51.27;29.77;;;;;;;5.15;39.41;102367.25;1445156;89;21737;-81
2022/01/24 10:43:27;;;;;;;21.30;13.90;;;;;;;5.15;34.64;102362.88;1444702;87;21501;-81
2022/01/24 10:45:57;;;;;;;14.13;9.70;;;;;;;5.16;35.25;102358.47;1443352;88;21677;-80
2022/01/24 10:48:28;;;;;;;18.87;13.72;;;;;;;5.17;34.96;102354.92;1441127;87;21545;-80
2022/01/24 10:51:18;;;;;;;19.87;13.33;;;;;;;5.12;35.25;102351.63;1444377;88;22503;-81
2022/01/24 10:53:57;;;;;;;25.90;17.33;;;;;;;4.83;33.48;102356.33;1447681;87;21502;-82
2022/01/24 10:56:40;;;;;;;12.23;8.57;;;;;;;4.99;35.27;102347.38;1458632;87;21456;-81
2022/01/24 10:59:24;;;;;;;30.30;19.17;;;;;;;5.39;37.76;102344.35;1425279;88;22658;-81
2022/01/24 11:01:58;;;;;;;13.53;9.87;;;;;;;5.57;36.35;102337.42;1469363;88;21529;-84
2022/01/24 11:04:27;;;;;;;16.13;11.90;;;;;;;5.34;35.57;102343.23;1457500;87;21614;-84
2022/01/24 11:07:02;;;;;;;16.70;10.97;;;;;;;5.32;36.11;102338.52;1461525;88;21441;-80
2022/01/24 11:09:32;;;;;;;18.10;11.30;;;;;;;5.31;35.70;102336.80;1454166;88;21676;-80
2022/01/24 11:12:11;;;;;;;19.13;11.07;;;;;;;5.18;34.79;102336.49;1473329;88;22582;-81
2022/01/24 11:14:42;;;;;;;21.93;14.67;;;;;;;5.18;36.53;102335.64;1483821;87;22522;-80
2022/01/24 11:17:14;;;;;;;24.83;15.63;;;;;;;5.27;33.64;102331.30;1474213;87;21417;-81
2022/01/24 11:19:50;;;;;;;44.67;23.17;;;;;;;5.11;33.50;102326.31;1444144;87;21656;-84
2022/01/24 11:22:20;;;;;;;15.77;9.97;;;;;;;5.35;36.61;102331.83;1437884;88;21448;-86
2022/01/24 11:25:09;;;;;;;;;;;;;;;;;;;;;
2022/01/24 11:27:27;;;;;;;14.27;9.50;;;;;;;5.75;35.54;102326.54;1443782;88;22350;-84
2022/01/24 11:29:58;;;;;;;15.57;9.27;;;;;;;5.78;35.49;102329.91;1453222;88;22630;-85
2022/01/24 11:32:51;;;;;;;14.60;9.60;;;;;;;5.71;35.35;102324.52;1437351;88;22614;-84
2022/01/24 11:35:39;;;;;;;14.30;9.77;;;;;;;6.06;37.79;102319.44;1443288;87;22440;-84
2022/01/24 11:38:42;;;;;;;21.27;10.53;;;;;;;6.21;34.46;102317.86;1415080;91;22381;-83
2022/01/24 11:41:32;;;;;;;12.43;9.13;;;;;;;6.35;35.21;102319.83;1393428;92;21612;-81
2022/01/24 11:44:06;;;;;;;13.73;9.40;;;;;;;6.30;31.24;102310.83;1405169;91;21653;-80
2022/01/24 11:46:48;;;;;;;13.10;9.37;;;;;;;6.28;34.86;102313.55;1415933;91;21583;-82
2022/01/24 11:49:26;;;;;;;14.03;8.93;;;;;;;6.11;30.17;102318.77;1394379;92;21602;-81
2022/01/24 11:52:11;;;;;;;11.93;8.27;;;;;;;5.46;31.75;102315.57;1442526;88;22278;-83
2022/01/24 11:54:50;;;;;;;14.47;9.50;;;;;;;4.57;31.88;102313.27;1432898;88;22104;-83
2022/01/24 11:57:36;;;;;;;13.80;9.23;;;;;;;4.67;33.73;102313.30;1442928;87;23173;-83
2022/01/24 12:00:09;;;;;;;14.20;9.53;;;;;;;5.03;35.54;102311.34;1438626;88;21670;-83
2022/01/24 12:02:44;;;;;;;15.00;9.60;;;;;;;4.39;34.00;102298.69;1439792;87;23554;-83
2022/01/24 12:05:41;;;;;;;16.50;9.50;;;;;;;4.69;35.31;102302.27;1438109;88;21452;-86
2022/01/24 12:08:12;;;;;;;12.90;8.40;;;;;;;4.82;33.21;102298.23;1432383;87;21605;-85
2022/01/24 12:10:44;;;;;;;10.67;8.20;;;;;;;5.05;34.83;102302.95;1437242;88;21464;-85
2022/01/24 12:13:27;;;;;;;11.03;7.70;;;;;;;5.16;32.29;102295.47;1436101;88;21561;-84
2022/01/24 12:16:00;;;;;;;12.57;7.70;;;;;;;4.76;31.86;102286.69;1413554;91;21700;-83
2022/01/24 12:18:34;;;;;;;12.73;7.93;;;;;;;3.96;33.65;102289.90;1388567;92;21486;-81
2022/01/24 12:21:22;;;;;;;11.67;8.00;;;;;;;3.87;34.23;102290.26;1417656;91;21460;-82
2022/01/24 12:23:53;;;;;;;10.57;8.07;;;;;;;3.37;34.19;102294.33;1397187;90;21451;-83
2022/01/24 12:26:25;;;;;;;14.23;8.10;;;;;;;3.03;34.74;102294.20;1416403;89;21460;-82
2022/01/24 12:29:04;;;;;;;13.97;9.33;;;;;;;3.15;36.06;102297.69;1391755;90;22172;-81
2022/01/24 12:31:48;;;;;;;12.13;8.23;;;;;;;3.89;35.68;102283.20;1422005;88;21378;-82
2022/01/24 12:34:32;;;;;;;13.43;8.23;;;;;;;3.83;34.58;102288.69;1387962;88;21317;-81
2022/01/24 12:37:04;;;;;;;9.23;7.03;;;;;;;4.40;35.00;102284.68;1399772;87;21413;-82
2022/01/24 12:39:48;;;;;;;11.83;8.47;;;;;;;5.09;35.37;102287.45;1415801;88;21369;-82
2022/01/24 12:42:40;;;;;;;12.80;8.00;;;;;;;5.55;34.24;102288.04;1390908;87;21510;-82
2022/01/24 12:48:16;;;;;;;11.93;8.27;;;;;;;6.59;33.98;102281.81;1455654;87;21368;-82
2022/01/24 12:50:54;;;;;;;10.60;7.90;;;;;;;7.03;31.50;102283.95;1467054;86;23411;-82
2022/01/24 12:53:23;;;;;;;11.57;8.43;;;;;;;7.02;30.84;102290.17;1450591;86;21627;-81
2022/01/24 12:56:04;;;;;;;10.00;7.97;;;;;;;7.30;31.80;102288.70;1451903;87;21482;-81
2022/01/24 12:58:38;;;;;;;12.18;8.60;;;;;;;7.66;31.74;102292.02;1366449;88;22362;-82
2022/01/24 13:01:37;;;;;;;11.93;7.70;;;;;;;7.99;31.68;102280.54;1396674;87;21368;-81
2022/01/24 13:04:11;;;;;;;11.70;8.20;;;;;;;8.16;31.26;102282.70;1400063;87;21439;-82
2022/01/24 13:06:46;;;;;;;9.47;7.70;;;;;;;8.20;30.37;102277.63;1416846;86;21481;-81
2022/01/24 13:09:18;;;;;;;12.47;8.87;;;;;;;7.96;29.21;102278.55;1398470;88;21482;-82
2022/01/24 13:12:00;;;;;;;17.43;9.63;;;;;;;7.98;30.43;102274.89;1410983;86;21281;-82
2022/01/24 13:14:43;;;;;;;9.10;6.90;;;;;;;8.27;30.85;102272.40;1403754;87;21324;-82
2022/01/24 13:22:57;;;;;;;10.37;7.83;;;;;;;7.94;30.93;102274.70;1420110;89;21594;-81